createdAt,value
2023-03-18T00:00:33.535Z,10.65
2023-03-18T00:01:42.865Z,10.65
2023-03-18T00:02:52.113Z,10.68
2023-03-18T00:04:01.705Z,10.58
2023-03-18T00:06:28.054Z,11.52
2023-03-18T00:07:37.163Z,11.10
2023-03-18T00:08:47.891Z,10.73
2023-03-18T00:11:06.192Z,11.77
2023-03-18T00:12:14.892Z,10.53
2023-03-18T00:13:23.430Z,11.45
2023-03-18T00:14:33.064Z,10.96
2023-03-18T00:15:42.721Z,10.53
2023-03-18T00:16:53.134Z,11.75
2023-03-18T00:18:01.708Z,11.00
2023-03-18T00:19:11.590Z,10.02
2023-03-18T00:20:23.559Z,10.30
2023-03-18T00:21:33.126Z,10.23
2023-03-18T00:22:43.852Z,10.85
2023-03-18T00:25:06.378Z,10.00
2023-03-18T00:26:17.668Z,10.50
2023-03-18T00:27:27.083Z,11.10
2023-03-18T00:28:36.900Z,10.88
2023-03-18T00:29:45.558Z,10.60
2023-03-18T00:30:56.142Z,10.65
2023-03-18T00:32:05.767Z,11.50
2023-03-18T00:33:14.236Z,10.72
2023-03-18T00:34:22.924Z,10.55
2023-03-18T00:35:32.061Z,11.83
2023-03-18T00:36:41.774Z,11.63
2023-03-18T00:37:51.567Z,10.90
2023-03-18T00:39:02.072Z,10.63
2023-03-18T00:42:55.595Z,9.92
2023-03-18T00:44:06.502Z,11.57
2023-03-18T00:47:50.047Z,11.85
2023-03-18T00:49:01.868Z,10.87
2023-03-18T00:50:12.060Z,10.88
2023-03-18T00:51:22.829Z,11.02
2023-03-18T00:52:32.992Z,11.00
2023-03-18T00:53:48.606Z,11.40
2023-03-18T00:54:59.087Z,11.47
2023-03-18T00:56:08.630Z,11.25
2023-03-18T00:57:17.759Z,10.52
2023-03-18T00:58:26.473Z,10.47
2023-03-18T00:59:36.117Z,11.68
2023-03-18T01:00:45.427Z,10.93
2023-03-18T01:01:55.013Z,10.70
2023-03-18T01:03:06.087Z,11.18
2023-03-18T01:04:15.301Z,10.40
2023-03-18T01:05:24.012Z,10.66
2023-03-18T01:06:36.049Z,10.75
2023-03-18T01:07:45.823Z,11.28
2023-03-18T01:08:58.088Z,10.85
2023-03-18T01:10:08.923Z,10.22
2023-03-18T01:12:30.250Z,10.45
2023-03-18T01:14:55.855Z,10.95
2023-03-18T01:16:07.534Z,10.77
2023-03-18T01:18:31.691Z,11.57
2023-03-18T01:19:41.095Z,11.88
2023-03-18T01:20:51.057Z,10.73
2023-03-18T01:22:04.252Z,11.10
2023-03-18T01:23:17.251Z,11.08
2023-03-18T01:24:27.097Z,11.55
2023-03-18T01:25:35.810Z,10.85
2023-03-18T01:26:45.776Z,11.93
2023-03-18T01:27:56.248Z,11.40
2023-03-18T01:29:05.634Z,10.75
2023-03-18T01:30:16.717Z,11.27
2023-03-18T01:31:26.041Z,10.88
2023-03-18T01:33:48.303Z,10.67
2023-03-18T01:35:00.442Z,11.16
2023-03-18T01:36:09.981Z,11.15
2023-03-18T01:37:19.749Z,11.52
2023-03-18T01:38:30.763Z,11.63
2023-03-18T01:39:41.984Z,10.95
2023-03-18T01:40:54.585Z,10.82
2023-03-18T01:43:24.964Z,11.60
2023-03-18T01:44:35.100Z,11.15
2023-03-18T01:47:04.820Z,11.43
2023-03-18T01:49:39.392Z,11.90
2023-03-18T01:50:55.542Z,10.63
2023-03-18T01:52:17.673Z,9.82
2023-03-18T01:53:35.959Z,9.82
2023-03-18T01:54:49.402Z,9.45
2023-03-18T01:56:01.706Z,8.97
2023-03-18T01:58:33.632Z,9.20
2023-03-18T01:59:44.551Z,8.83
2023-03-18T02:02:30.213Z,9.03
2023-03-18T02:05:02.133Z,7.93
2023-03-18T02:06:13.971Z,8.50
2023-03-18T02:08:45.809Z,8.65
2023-03-18T02:09:57.407Z,8.68
2023-03-18T02:11:10.914Z,7.88
2023-03-18T02:12:28.576Z,8.58
2023-03-18T02:13:42.413Z,8.35
2023-03-18T02:14:54.250Z,8.90
2023-03-18T02:17:27.414Z,7.55
2023-03-18T02:18:42.487Z,8.05
2023-03-18T02:20:01.669Z,8.12
2023-03-18T02:21:31.025Z,7.43
2023-03-18T02:24:19.192Z,8.00
2023-03-18T02:25:37.856Z,8.18
2023-03-18T02:28:13.851Z,8.40
2023-03-18T02:29:26.320Z,8.42
2023-03-18T02:30:49.041Z,7.48
2023-03-18T02:32:04.995Z,7.80
2023-03-18T02:33:17.028Z,7.67
2023-03-18T02:34:26.751Z,7.62
2023-03-18T02:35:38.205Z,7.40
2023-03-18T02:36:47.567Z,8.00
2023-03-18T02:37:57.637Z,7.72
2023-03-18T02:39:07.725Z,8.26
2023-03-18T02:41:37.526Z,7.90
2023-03-18T02:42:47.673Z,7.83
2023-03-18T02:43:57.108Z,7.62
2023-03-18T02:45:11.572Z,6.95
2023-03-18T02:46:32.431Z,7.50
2023-03-18T02:47:44.965Z,7.38
2023-03-18T02:48:55.071Z,7.80
2023-03-18T02:50:05.062Z,7.40
2023-03-18T02:51:18.909Z,7.90
2023-03-18T02:52:28.495Z,7.25
2023-03-18T02:53:38.893Z,7.30
2023-03-18T02:54:47.564Z,7.60
2023-03-18T02:55:56.180Z,8.15
2023-03-18T02:57:07.411Z,6.90
2023-03-18T02:58:17.147Z,7.38
2023-03-18T03:00:43.821Z,7.16
2023-03-18T03:04:15.516Z,7.00
2023-03-18T03:05:24.147Z,7.25
2023-03-18T03:06:36.257Z,6.73
2023-03-18T03:07:44.983Z,7.22
2023-03-18T03:08:55.536Z,7.17
2023-03-18T03:10:07.885Z,7.42
2023-03-18T03:11:17.121Z,6.57
2023-03-18T03:12:27.602Z,7.12
2023-03-18T03:13:40.731Z,7.20
2023-03-18T03:14:52.170Z,6.25
2023-03-18T03:16:02.478Z,6.72
2023-03-18T03:17:12.362Z,6.20
2023-03-18T03:18:22.945Z,6.07
2023-03-18T03:19:33.577Z,6.63
2023-03-18T03:20:45.150Z,6.70
2023-03-18T03:21:54.798Z,5.65
2023-03-18T03:23:07.778Z,5.50
2023-03-18T03:24:16.528Z,6.52
2023-03-18T03:25:28.994Z,6.68
2023-03-18T03:26:38.461Z,6.20
2023-03-18T03:27:49.108Z,6.10
2023-03-18T03:29:00.116Z,5.80
2023-03-18T03:30:12.398Z,5.77
2023-03-18T03:31:22.592Z,5.87
2023-03-18T03:32:33.710Z,6.10
2023-03-18T03:33:44.286Z,6.00
2023-03-18T03:34:53.849Z,6.22
2023-03-18T03:36:03.741Z,5.68
2023-03-18T03:37:13.494Z,6.40
2023-03-18T03:38:22.732Z,6.05
2023-03-18T03:39:33.215Z,6.30
2023-03-18T03:40:44.363Z,5.55
2023-03-18T03:41:54.203Z,5.74
2023-03-18T03:43:03.447Z,5.55
2023-03-18T03:44:12.922Z,5.98
2023-03-18T03:45:23.400Z,5.50
2023-03-18T03:47:48.752Z,5.48
2023-03-18T03:48:58.645Z,5.68
2023-03-18T03:50:10.455Z,5.30
2023-03-18T03:51:21.308Z,5.90
2023-03-18T03:52:31.090Z,5.58
2023-03-18T03:53:40.744Z,5.32
2023-03-18T03:54:51.413Z,6.07
2023-03-18T03:56:00.443Z,5.05
2023-03-18T03:57:09.536Z,5.52
2023-03-18T03:58:19.426Z,5.22
2023-03-18T03:59:28.832Z,5.06
2023-03-18T04:00:40.906Z,5.80
2023-03-18T04:03:07.354Z,5.30
2023-03-18T04:04:16.948Z,4.90
2023-03-18T04:05:26.921Z,5.93
2023-03-18T04:06:37.595Z,6.13
2023-03-18T04:07:48.172Z,5.28
2023-03-18T04:10:21.309Z,6.03
2023-03-18T04:12:46.842Z,6.45
2023-03-18T04:13:57.003Z,4.35
2023-03-18T04:16:25.316Z,5.32
2023-03-18T04:17:35.457Z,5.23
2023-03-18T04:18:45.923Z,5.75
2023-03-18T04:19:55.092Z,5.90
2023-03-18T04:21:05.416Z,4.23
2023-03-18T04:22:18.837Z,5.42
2023-03-18T04:23:28.558Z,4.95
2023-03-18T04:24:38.389Z,5.03
2023-03-18T04:25:50.400Z,5.40
2023-03-18T04:26:59.528Z,5.25
2023-03-18T04:28:09.649Z,5.20
2023-03-18T04:29:18.968Z,4.67
2023-03-18T04:30:28.146Z,5.23
2023-03-18T04:33:59.946Z,4.47
2023-03-18T04:35:11.067Z,5.05
2023-03-18T04:37:29.397Z,4.60
2023-03-18T04:38:39.469Z,5.86
2023-03-18T04:39:50.490Z,5.10
2023-03-18T04:40:59.363Z,4.90
2023-03-18T04:42:08.030Z,4.87
2023-03-18T04:43:16.912Z,4.97
2023-03-18T04:44:28.409Z,4.75
2023-03-18T04:45:37.756Z,5.12
2023-03-18T04:46:48.005Z,5.00
2023-03-18T04:47:58.671Z,3.97
2023-03-18T04:49:09.152Z,4.60
2023-03-18T04:51:33.894Z,5.00
2023-03-18T04:52:45.170Z,4.50
2023-03-18T04:53:55.752Z,4.97
2023-03-18T04:55:07.390Z,4.93
2023-03-18T04:57:37.420Z,4.92
2023-03-18T04:58:46.671Z,5.12
2023-03-18T05:00:01.612Z,4.77
2023-03-18T05:02:21.839Z,4.90
2023-03-18T05:03:32.121Z,4.75
2023-03-18T05:04:41.946Z,5.05
2023-03-18T05:05:51.037Z,4.35
2023-03-18T05:07:01.770Z,4.47
2023-03-18T05:08:12.877Z,5.30
2023-03-18T05:09:22.019Z,4.67
2023-03-18T05:10:31.501Z,4.30
2023-03-18T05:11:40.242Z,4.60
2023-03-18T05:12:51.301Z,4.37
2023-03-18T05:14:02.347Z,4.47
2023-03-18T05:16:25.995Z,4.55
2023-03-18T05:17:35.434Z,3.95
2023-03-18T05:18:46.481Z,4.10
2023-03-18T05:19:55.547Z,4.13
2023-03-18T05:21:07.542Z,3.98
2023-03-18T05:22:20.401Z,3.72
2023-03-18T05:23:30.481Z,3.85
2023-03-18T05:24:40.443Z,4.03
2023-03-18T05:25:52.089Z,4.10
2023-03-18T05:27:02.068Z,3.93
2023-03-18T05:28:14.651Z,4.23
2023-03-18T05:29:26.428Z,3.65
2023-03-18T05:30:40.534Z,3.83
2023-03-18T05:31:50.965Z,4.00
2023-03-18T05:33:01.298Z,5.25
2023-03-18T05:34:12.903Z,5.35
2023-03-18T05:36:39.985Z,5.97
2023-03-18T05:37:50.023Z,5.30
2023-03-18T05:38:59.921Z,5.45
2023-03-18T05:41:27.700Z,4.63
2023-03-18T05:42:49.402Z,4.68
2023-03-18T05:43:48.791Z,6.17
2023-03-18T05:44:59.099Z,5.43
2023-03-18T05:46:09.055Z,4.40
2023-03-18T05:47:37.699Z,6.30
2023-03-18T05:48:54.544Z,5.10
2023-03-18T05:50:04.573Z,3.74
2023-03-18T05:52:31.141Z,4.12
2023-03-18T05:54:56.801Z,4.67
2023-03-18T05:57:23.699Z,4.85
2023-03-18T06:00:01.784Z,5.03
2023-03-18T06:01:13.736Z,6.45
2023-03-18T06:02:24.123Z,4.93
2023-03-18T06:04:49.247Z,3.87
2023-03-18T06:05:59.402Z,4.18
2023-03-18T06:07:11.047Z,4.32
2023-03-18T06:09:30.388Z,4.15
2023-03-18T06:10:40.934Z,4.45
2023-03-18T06:11:50.282Z,4.45
2023-03-18T06:13:00.186Z,4.22
2023-03-18T06:14:09.897Z,3.85
2023-03-18T06:15:18.923Z,5.95
2023-03-18T06:16:28.674Z,6.13
2023-03-18T06:17:38.304Z,7.43
2023-03-18T06:18:47.287Z,6.48
2023-03-18T06:19:58.738Z,5.55
2023-03-18T06:22:18.700Z,5.82
2023-03-18T06:23:28.309Z,6.90
2023-03-18T06:24:37.377Z,5.43
2023-03-18T06:25:47.287Z,6.45
2023-03-18T06:28:14.227Z,7.37
2023-03-18T06:29:24.242Z,10.50
2023-03-18T06:30:34.840Z,6.63
2023-03-18T06:31:44.943Z,5.90
2023-03-18T06:32:57.762Z,4.65
2023-03-18T06:34:08.429Z,5.28
2023-03-18T06:36:27.475Z,4.80
2023-03-18T06:37:38.318Z,4.43
2023-03-18T06:38:48.228Z,3.92
2023-03-18T06:41:14.287Z,3.70
2023-03-18T06:42:26.290Z,3.45
2023-03-18T06:43:37.629Z,3.13
2023-03-18T06:46:05.646Z,3.85
2023-03-18T06:47:15.903Z,4.02
2023-03-18T06:48:28.544Z,3.25
2023-03-18T06:49:38.071Z,3.93
2023-03-18T06:50:50.396Z,3.55
2023-03-18T06:52:02.227Z,3.12
2023-03-18T06:53:12.723Z,5.13
2023-03-18T06:54:21.704Z,4.33
2023-03-18T06:55:32.287Z,4.00
2023-03-18T06:56:44.278Z,4.90
2023-03-18T06:57:56.682Z,4.70
2023-03-18T06:59:09.640Z,6.12
2023-03-18T07:01:37.704Z,5.83
2023-03-18T07:02:47.478Z,5.73
2023-03-18T07:03:58.528Z,5.28
2023-03-18T07:05:09.852Z,5.38
2023-03-18T07:06:20.652Z,11.90
2023-03-18T07:07:30.208Z,9.15
2023-03-18T07:08:39.119Z,8.42
2023-03-18T07:09:47.725Z,5.08
2023-03-18T07:10:57.777Z,4.20
2023-03-18T07:13:25.508Z,5.50
2023-03-18T07:15:51.008Z,7.23
2023-03-18T07:17:00.535Z,7.30
2023-03-18T07:18:12.072Z,4.58
2023-03-18T07:19:22.522Z,4.22
2023-03-18T07:21:42.502Z,5.40
2023-03-18T07:22:52.503Z,7.05
2023-03-18T07:24:04.230Z,5.02
2023-03-18T07:25:13.527Z,4.33
2023-03-18T07:26:23.685Z,4.90
2023-03-18T07:27:33.127Z,5.08
2023-03-18T07:28:43.507Z,4.55
2023-03-18T07:31:09.157Z,5.30
2023-03-18T07:32:19.154Z,6.08
2023-03-18T07:34:43.061Z,5.02
2023-03-18T07:35:51.939Z,4.93
2023-03-18T07:37:01.968Z,5.16
2023-03-18T07:38:11.336Z,5.00
2023-03-18T07:39:20.677Z,4.63
2023-03-18T07:40:29.228Z,4.68
2023-03-18T07:41:38.408Z,4.60
2023-03-18T07:42:48.241Z,5.57
2023-03-18T07:43:57.719Z,4.95
2023-03-18T07:46:24.041Z,3.37
2023-03-18T07:48:50.919Z,3.62
2023-03-18T07:49:59.672Z,4.25
2023-03-18T07:51:08.403Z,3.18
2023-03-18T07:52:19.106Z,3.22
2023-03-18T07:53:29.053Z,3.22
2023-03-18T07:55:53.816Z,3.17
2023-03-18T07:57:04.124Z,3.42
2023-03-18T07:58:13.115Z,3.10
2023-03-18T08:00:38.064Z,3.32
2023-03-18T08:01:47.440Z,3.75
2023-03-18T08:02:56.254Z,4.30
2023-03-18T08:04:05.553Z,4.73
2023-03-18T08:05:15.796Z,4.32
2023-03-18T08:06:25.161Z,4.20
2023-03-18T08:07:36.140Z,4.05
2023-03-18T08:10:00.994Z,3.67
2023-03-18T08:11:14.494Z,3.78
2023-03-18T08:12:23.746Z,4.13
2023-03-18T08:13:32.401Z,3.95
2023-03-18T08:14:43.343Z,4.03
2023-03-18T08:15:52.405Z,3.77
2023-03-18T08:17:03.097Z,3.40
2023-03-18T08:19:28.816Z,3.40
2023-03-18T08:20:38.114Z,3.82
2023-03-18T08:21:48.357Z,3.70
2023-03-18T08:22:57.310Z,3.20
2023-03-18T08:24:07.420Z,3.87
2023-03-18T08:25:17.263Z,3.45
2023-03-18T08:27:41.849Z,3.58
2023-03-18T08:28:50.410Z,3.80
2023-03-18T08:30:01.638Z,3.67
2023-03-18T08:31:11.220Z,3.40
2023-03-18T08:32:21.504Z,3.78
2023-03-18T08:33:31.117Z,3.00
2023-03-18T08:34:40.141Z,3.67
2023-03-18T08:35:49.660Z,3.58
2023-03-18T08:36:58.987Z,3.93
2023-03-18T08:38:07.574Z,4.10
2023-03-18T08:39:16.684Z,3.63
2023-03-18T08:41:41.432Z,3.50
2023-03-18T08:42:50.019Z,3.98
2023-03-18T08:44:00.295Z,3.18
2023-03-18T08:46:27.363Z,3.48
2023-03-18T08:47:35.928Z,3.43
2023-03-18T08:48:44.925Z,3.40
2023-03-18T08:49:54.162Z,2.77
2023-03-18T08:51:07.539Z,3.45
2023-03-18T08:52:17.392Z,4.65
2023-03-18T08:53:26.788Z,4.10
2023-03-18T08:54:35.987Z,3.40
2023-03-18T08:55:47.732Z,3.84
2023-03-18T08:58:11.531Z,4.37
2023-03-18T08:59:21.815Z,4.53
2023-03-18T09:00:33.126Z,4.40
2023-03-18T09:01:41.730Z,4.00
2023-03-18T09:02:52.676Z,4.55
2023-03-18T09:05:11.287Z,3.28
2023-03-18T09:06:20.445Z,4.63
2023-03-18T09:07:30.471Z,4.15
2023-03-18T09:08:39.283Z,4.00
2023-03-18T09:09:48.863Z,3.72
2023-03-18T09:12:14.437Z,3.50
2023-03-18T09:13:24.641Z,3.15
2023-03-18T09:14:33.968Z,3.20
2023-03-18T09:15:42.500Z,3.18
2023-03-18T09:16:52.193Z,3.55
2023-03-18T09:18:11.385Z,4.35
2023-03-18T09:19:12.396Z,4.47
2023-03-18T09:20:21.718Z,4.13
2023-03-18T09:21:31.178Z,4.33
2023-03-18T09:22:44.796Z,3.25
2023-03-18T09:25:09.382Z,3.28
2023-03-18T09:26:19.572Z,3.20
2023-03-18T09:27:28.811Z,3.60
2023-03-18T09:28:39.125Z,3.55
2023-03-18T09:29:48.314Z,3.20
2023-03-18T09:30:57.053Z,5.43
2023-03-18T09:33:22.024Z,3.90
2023-03-18T09:34:31.185Z,4.03
2023-03-18T09:36:58.502Z,3.30
2023-03-18T09:38:07.538Z,3.77
2023-03-18T09:40:38.676Z,3.13
2023-03-18T09:42:01.384Z,3.82
2023-03-18T09:43:47.543Z,3.62
2023-03-18T09:45:00.567Z,3.42
2023-03-18T09:47:57.218Z,2.53
2023-03-18T09:49:18.935Z,3.38
2023-03-18T09:50:41.162Z,3.15
2023-03-18T09:53:48.457Z,2.93
2023-03-18T09:56:33.749Z,2.40
2023-03-18T09:57:46.905Z,2.55
2023-03-18T09:59:18.295Z,2.62
2023-03-18T10:00:38.621Z,3.12
2023-03-18T10:03:40.329Z,2.00
2023-03-18T10:08:17.214Z,2.53
2023-03-18T10:09:29.616Z,2.52
2023-03-18T10:12:07.931Z,3.88
2023-03-18T10:16:22.552Z,2.30
2023-03-18T10:17:38.223Z,2.63
2023-03-18T10:18:48.046Z,5.83
2023-03-18T10:21:46.098Z,3.85
2023-03-18T10:23:01.576Z,3.20
2023-03-18T10:25:49.711Z,3.35
2023-03-18T10:27:20.443Z,3.20
2023-03-18T10:28:45.593Z,2.60
2023-03-18T10:32:00.378Z,2.70
2023-03-18T10:33:26.067Z,2.95
2023-03-18T10:35:04.136Z,2.92
2023-03-18T10:36:16.852Z,2.95
2023-03-18T10:39:01.976Z,3.30
2023-03-18T10:40:17.598Z,2.53
2023-03-18T10:42:53.745Z,2.52
2023-03-18T10:45:27.802Z,2.63
2023-03-18T10:46:38.286Z,2.57
2023-03-18T10:49:17.033Z,2.43
2023-03-18T10:50:35.386Z,2.03
2023-03-18T10:53:48.702Z,1.90
2023-03-18T10:54:58.225Z,2.58
2023-03-18T10:56:09.817Z,2.38
2023-03-18T10:57:21.028Z,2.30
2023-03-18T10:58:29.801Z,2.02
2023-03-18T10:59:40.490Z,1.93
2023-03-18T11:04:56.236Z,1.97
2023-03-18T11:07:26.733Z,1.97
2023-03-18T11:08:40.606Z,2.33
2023-03-18T11:11:35.737Z,2.15
2023-03-18T11:14:01.418Z,2.87
2023-03-18T11:15:12.400Z,2.57
2023-03-18T11:16:30.559Z,2.55
2023-03-18T11:17:40.424Z,2.42
2023-03-18T11:18:53.035Z,2.72
2023-03-18T11:21:28.816Z,3.55
2023-03-18T11:24:14.245Z,3.50
2023-03-18T11:25:26.375Z,2.97
2023-03-18T11:28:05.642Z,2.17
2023-03-18T11:30:50.639Z,2.80
2023-03-18T11:32:00.999Z,2.43
2023-03-18T11:34:35.581Z,2.70
2023-03-18T11:37:21.043Z,2.08
2023-03-18T11:38:35.122Z,2.43
2023-03-18T11:39:44.621Z,2.28
2023-03-18T11:43:36.607Z,2.40
2023-03-18T11:44:46.589Z,2.17
2023-03-18T11:47:24.070Z,2.07
2023-03-18T11:48:40.747Z,2.00
2023-03-18T11:49:49.391Z,2.55
2023-03-18T11:52:53.112Z,2.63
2023-03-18T11:54:33.326Z,2.12
2023-03-18T11:58:01.623Z,2.32
2023-03-18T12:00:52.296Z,2.72
2023-03-18T12:02:14.466Z,2.52
2023-03-18T12:05:30.395Z,2.38
2023-03-18T12:08:18.451Z,2.02
2023-03-18T12:12:18.740Z,2.18
2023-03-18T12:16:52.668Z,2.37
2023-03-18T12:18:23.310Z,2.12
2023-03-18T12:19:35.920Z,2.85
2023-03-18T12:20:51.844Z,2.32
2023-03-18T12:22:30.273Z,2.95
2023-03-18T12:24:05.057Z,2.67
2023-03-18T12:25:22.068Z,1.85
2023-03-18T12:26:58.860Z,1.73
2023-03-18T12:29:55.346Z,2.02
2023-03-18T12:31:31.534Z,1.88
2023-03-18T12:32:43.880Z,2.30
2023-03-18T12:33:58.306Z,2.93
2023-03-18T12:35:30.785Z,2.73
2023-03-18T12:36:48.072Z,2.83
2023-03-18T12:38:21.363Z,2.35
2023-03-18T12:40:07.824Z,2.10
2023-03-18T12:41:40.511Z,2.18
2023-03-18T12:42:56.416Z,2.17
2023-03-18T12:45:38.811Z,2.65
2023-03-18T12:46:51.128Z,2.93
2023-03-18T12:48:05.026Z,2.72
2023-03-18T12:50:46.965Z,2.23
2023-03-18T12:53:48.495Z,2.87
2023-03-18T12:55:29.744Z,2.73
2023-03-18T12:56:52.235Z,3.77
2023-03-18T13:01:11.697Z,2.15
2023-03-18T13:02:27.013Z,2.30
2023-03-18T13:03:41.570Z,2.67
2023-03-18T13:07:50.566Z,2.72
2023-03-18T13:09:20.594Z,2.38
2023-03-18T13:10:34.376Z,2.73
2023-03-18T13:11:53.659Z,3.52
2023-03-18T13:14:59.461Z,3.97
2023-03-18T13:16:09.350Z,3.98
2023-03-18T13:17:24.736Z,2.77
2023-03-18T13:19:53.239Z,4.60
2023-03-18T13:21:14.463Z,4.35
2023-03-18T13:22:26.957Z,4.52
2023-03-18T13:42:30.217Z,2.38
2023-03-18T13:43:42.786Z,2.50
2023-03-18T13:46:24.116Z,4.58
2023-03-18T13:47:37.356Z,4.55
2023-03-18T13:48:47.684Z,3.60
2023-03-18T13:50:05.545Z,3.75
2023-03-18T13:51:21.360Z,2.85
2023-03-18T13:54:06.151Z,2.75
2023-03-18T13:55:37.066Z,2.52
2023-03-18T13:56:58.777Z,2.42
2023-03-18T13:58:22.904Z,2.23
2023-03-18T13:59:38.097Z,4.12
2023-03-18T14:01:15.704Z,4.13
2023-03-18T14:02:30.803Z,4.30
2023-03-18T14:03:48.349Z,3.23
2023-03-18T14:05:00.251Z,2.90
2023-03-18T14:06:14.533Z,2.98
2023-03-18T14:07:24.380Z,3.48
2023-03-18T14:08:43.684Z,3.80
2023-03-18T14:10:15.249Z,3.82
2023-03-18T14:12:39.780Z,3.60
2023-03-18T14:13:54.359Z,2.70
2023-03-18T14:15:12.824Z,2.97
2023-03-18T14:16:31.898Z,3.25
2023-03-18T14:17:47.686Z,3.10
2023-03-18T14:18:58.517Z,5.95
2023-03-18T14:21:31.611Z,7.97
2023-03-18T14:22:42.108Z,5.83
2023-03-18T14:27:05.346Z,4.47
2023-03-18T14:28:20.274Z,2.60
2023-03-18T14:29:36.075Z,3.70
2023-03-18T14:31:01.084Z,3.25
2023-03-18T14:32:38.030Z,3.73
2023-03-18T14:35:29.477Z,2.88
2023-03-18T14:36:54.324Z,2.27
2023-03-18T14:38:13.246Z,2.28
2023-03-18T14:39:34.238Z,2.58
2023-03-18T14:40:47.248Z,3.10
2023-03-18T14:43:30.898Z,3.13
2023-03-18T14:44:43.895Z,3.57
2023-03-18T14:45:59.646Z,3.20
2023-03-18T14:47:38.666Z,3.58
2023-03-18T14:48:41.220Z,3.47
2023-03-18T14:50:04.750Z,4.30
2023-03-18T14:51:22.198Z,4.78
2023-03-18T14:54:09.340Z,4.56
2023-03-18T14:55:22.787Z,4.42
2023-03-18T14:56:36.422Z,4.75
2023-03-18T14:57:46.997Z,3.52
2023-03-18T14:58:56.398Z,4.35
2023-03-18T15:00:07.888Z,4.38
2023-03-18T15:01:17.185Z,3.55
2023-03-18T15:02:37.306Z,4.40
2023-03-18T15:05:07.273Z,4.82
2023-03-18T15:06:19.987Z,4.65
2023-03-18T15:07:38.611Z,4.32
2023-03-18T15:09:06.178Z,4.40
2023-03-18T15:10:20.411Z,4.27
2023-03-18T15:11:31.786Z,4.30
2023-03-18T15:12:40.896Z,4.38
2023-03-18T15:15:18.107Z,4.57
2023-03-18T15:16:30.169Z,3.42
2023-03-18T15:17:39.808Z,3.70
2023-03-18T15:20:12.782Z,5.87
2023-03-18T15:21:25.095Z,4.87
2023-03-18T15:22:35.570Z,3.30
2023-03-18T15:23:53.378Z,3.20
2023-03-18T15:25:04.985Z,2.95
2023-03-18T15:26:23.916Z,2.92
2023-03-18T15:27:35.061Z,3.28
2023-03-18T15:28:46.301Z,3.12
2023-03-18T15:29:58.992Z,3.30
2023-03-18T15:31:10.760Z,4.05
2023-03-18T15:32:26.059Z,3.70
2023-03-18T15:33:38.509Z,3.78
2023-03-18T15:35:12.873Z,4.72
2023-03-18T15:36:25.168Z,3.85
2023-03-18T15:37:40.502Z,4.22
2023-03-18T15:38:51.766Z,4.62
2023-03-18T15:41:53.495Z,6.10
2023-03-18T15:44:30.872Z,5.68
2023-03-18T15:45:49.846Z,5.77
2023-03-18T15:48:56.664Z,5.82
2023-03-18T15:50:21.076Z,5.73
2023-03-18T15:51:34.623Z,6.87
2023-03-18T15:52:43.299Z,6.77
2023-03-18T15:55:30.027Z,8.65
2023-03-18T15:58:06.469Z,6.82
2023-03-18T15:59:21.726Z,8.02
2023-03-18T16:00:33.898Z,6.93
2023-03-18T16:01:42.748Z,6.90
2023-03-18T16:02:53.643Z,8.45
2023-03-18T16:04:09.856Z,9.27
2023-03-18T16:05:26.278Z,8.02
2023-03-18T16:06:35.803Z,7.37
2023-03-18T16:07:46.068Z,6.98
2023-03-18T16:08:55.797Z,6.85
2023-03-18T16:10:05.054Z,6.37
2023-03-18T16:11:15.369Z,7.15
2023-03-18T16:12:26.902Z,7.45
2023-03-18T16:13:37.016Z,7.00
2023-03-18T16:14:48.976Z,6.80
2023-03-18T16:15:57.713Z,5.18
2023-03-18T16:17:07.009Z,5.52
2023-03-18T16:18:18.505Z,4.43
2023-03-18T16:19:28.567Z,4.35
2023-03-18T16:20:37.273Z,3.95
2023-03-18T16:23:01.095Z,3.62
2023-03-18T16:24:10.626Z,3.92
2023-03-18T16:25:20.054Z,3.70
2023-03-18T16:26:29.078Z,3.73
2023-03-18T16:28:55.884Z,6.92
2023-03-18T16:31:41.068Z,2.43
2023-03-18T16:32:51.320Z,2.52
2023-03-18T16:34:00.379Z,2.05
2023-03-18T16:36:34.211Z,2.38
2023-03-18T16:37:44.936Z,2.27
2023-03-18T16:38:54.038Z,2.45
2023-03-18T16:40:02.818Z,2.32
2023-03-18T16:42:28.822Z,2.73
2023-03-18T16:43:38.593Z,2.68
2023-03-18T16:44:47.409Z,3.35
2023-03-18T16:47:26.732Z,3.92
2023-03-18T16:48:35.333Z,3.65
2023-03-18T16:49:44.984Z,3.70
2023-03-18T16:50:53.729Z,4.00
2023-03-18T16:52:03.656Z,4.25
2023-03-18T16:54:57.858Z,3.43
2023-03-18T16:56:16.382Z,3.43
2023-03-18T16:57:25.166Z,3.42
2023-03-18T16:58:36.816Z,3.65
2023-03-18T16:59:50.178Z,5.30
2023-03-18T17:00:59.943Z,4.64
2023-03-18T17:03:29.672Z,4.68
2023-03-18T17:05:54.351Z,4.15
2023-03-18T17:07:04.810Z,3.50
2023-03-18T17:08:14.071Z,3.70
2023-03-18T17:09:26.042Z,3.48
2023-03-18T17:10:37.182Z,3.00
2023-03-18T17:12:59.728Z,3.78
2023-03-18T17:16:52.990Z,3.54
2023-03-18T17:18:06.098Z,4.05
2023-03-18T17:19:16.640Z,8.77
2023-03-18T17:20:28.716Z,5.20
2023-03-18T17:21:37.624Z,4.83
2023-03-18T17:22:48.580Z,4.02
2023-03-18T17:23:58.296Z,4.47
2023-03-18T17:26:32.608Z,8.45
2023-03-18T17:29:05.490Z,16.93
2023-03-18T17:30:20.928Z,22.43
2023-03-18T17:31:30.432Z,23.18
2023-03-18T17:32:39.344Z,19.23
2023-03-18T17:33:48.313Z,17.78
2023-03-18T17:34:58.099Z,13.93
2023-03-18T17:37:23.715Z,14.67
2023-03-18T17:38:34.443Z,15.80
2023-03-18T17:39:44.273Z,13.25
2023-03-18T17:42:29.185Z,9.82
2023-03-18T17:43:37.710Z,9.83
2023-03-18T17:44:47.312Z,10.57
2023-03-18T17:45:59.086Z,9.28
2023-03-18T17:47:08.992Z,10.38
2023-03-18T17:49:41.081Z,10.93
2023-03-18T17:50:55.517Z,11.32
2023-03-18T17:53:23.778Z,10.40
2023-03-18T17:54:32.929Z,10.47
2023-03-18T17:55:43.851Z,11.43
2023-03-18T17:56:56.648Z,12.17
2023-03-18T17:59:27.863Z,12.35
2023-03-18T18:01:53.238Z,17.05
2023-03-18T18:03:02.990Z,18.22
2023-03-18T18:04:17.447Z,16.10
2023-03-18T18:05:26.705Z,16.62
2023-03-18T18:06:37.495Z,15.95
2023-03-18T18:07:47.159Z,17.20
2023-03-18T18:09:01.482Z,16.73
2023-03-18T18:10:15.747Z,17.88
2023-03-18T18:11:28.313Z,17.58
2023-03-18T18:12:38.113Z,16.65
2023-03-18T18:13:47.651Z,16.13
2023-03-18T18:14:57.219Z,15.17
2023-03-18T18:16:06.443Z,15.52
2023-03-18T18:18:32.939Z,18.47
2023-03-18T18:19:42.564Z,17.53
2023-03-18T18:20:59.268Z,16.22
2023-03-18T18:23:38.650Z,16.13
2023-03-18T18:24:50.220Z,15.43
2023-03-18T18:27:21.062Z,9.17
2023-03-18T18:28:33.851Z,9.70
2023-03-18T18:29:46.491Z,9.77
2023-03-18T18:30:56.303Z,12.95
2023-03-18T18:32:05.953Z,9.10
2023-03-18T18:33:15.619Z,9.87
2023-03-18T18:35:39.613Z,8.02
2023-03-18T18:36:51.103Z,10.57
2023-03-18T18:38:00.675Z,9.97
2023-03-18T18:40:25.032Z,10.52
2023-03-18T18:41:33.711Z,11.33
2023-03-18T18:42:44.604Z,10.55
2023-03-18T18:45:02.037Z,8.82
2023-03-18T18:46:14.288Z,8.35
2023-03-18T18:47:23.411Z,8.45
2023-03-18T18:48:34.866Z,9.17
2023-03-18T18:49:44.455Z,9.32
2023-03-18T18:52:12.066Z,9.07
2023-03-18T18:53:28.066Z,40.60
2023-03-18T18:54:36.817Z,20.85
2023-03-18T18:55:46.178Z,8.86
2023-03-18T18:56:56.889Z,8.63
2023-03-18T18:58:05.469Z,7.95
2023-03-18T18:59:22.612Z,8.07
2023-03-18T19:00:32.757Z,7.65
2023-03-18T19:01:41.169Z,8.23
2023-03-18T19:02:53.305Z,8.95
2023-03-18T19:04:02.386Z,9.37
2023-03-18T19:05:11.118Z,8.88
2023-03-18T19:06:31.534Z,8.73
2023-03-18T19:07:42.308Z,8.13
2023-03-18T19:10:02.192Z,8.75
2023-03-18T19:11:22.035Z,8.65
2023-03-18T19:12:30.547Z,10.08
2023-03-18T19:13:39.310Z,9.15
2023-03-18T19:17:23.840Z,8.48
2023-03-18T19:18:39.972Z,9.83
2023-03-18T19:19:51.151Z,9.72
2023-03-18T19:21:00.265Z,9.97
2023-03-18T19:22:17.631Z,8.95
2023-03-18T19:23:35.559Z,9.53
2023-03-18T19:24:49.984Z,8.30
2023-03-18T19:26:02.094Z,9.60
2023-03-18T19:27:32.049Z,8.57
2023-03-18T19:28:57.778Z,8.68
2023-03-18T19:31:21.783Z,14.43
2023-03-18T19:32:31.209Z,11.55
2023-03-18T19:33:40.814Z,8.52
2023-03-18T19:34:52.479Z,8.73
2023-03-18T19:36:05.140Z,8.87
2023-03-18T19:37:21.705Z,7.87
2023-03-18T19:39:49.392Z,8.18
2023-03-18T19:40:59.262Z,8.85
2023-03-18T19:42:14.321Z,8.20
2023-03-18T19:44:39.405Z,8.07
2023-03-18T19:45:50.637Z,8.12
2023-03-18T19:47:01.096Z,8.25
2023-03-18T19:49:34.576Z,8.38
2023-03-18T19:50:44.113Z,8.67
2023-03-18T19:53:16.406Z,8.40
2023-03-18T19:54:32.553Z,33.32
2023-03-18T19:55:42.758Z,35.72
2023-03-18T19:56:52.848Z,11.00
2023-03-18T19:58:03.518Z,10.55
2023-03-18T20:00:32.914Z,10.35
2023-03-18T20:01:41.552Z,10.55
2023-03-18T20:02:50.542Z,11.20
2023-03-18T20:04:00.581Z,11.35
2023-03-18T20:05:18.991Z,10.70
2023-03-18T20:06:28.905Z,11.23
2023-03-18T20:07:38.778Z,9.50
2023-03-18T20:08:48.315Z,9.88
2023-03-18T20:09:57.644Z,10.23
2023-03-18T20:12:33.840Z,35.52
2023-03-18T20:13:44.020Z,15.38
2023-03-18T20:14:52.935Z,14.30
2023-03-18T20:17:39.251Z,13.08
2023-03-18T20:18:48.882Z,13.02
2023-03-18T20:19:59.102Z,13.78
2023-03-18T20:22:34.353Z,10.65
2023-03-18T20:23:43.091Z,11.07